Murree Weather



Murree's Current Weather

Temprature 32.22o broken clouds

broken clouds

Rain: 0 %

Min Temprature32.22o
Max Temprature32.22o
Humidity36
Wind Speed2.24 m/h
Sun Rise05:10:56
Sun Set18:54:55
Current Time: 08-May-2021 14:17:51
Lat/Lon: 33.9073, 73.393




Murree's Geo Location



Murree's Weather Forecast

Time Overall Temp Min Temp Max Temp Humidity Wind Speed Rain
08-May-2021 (Sat)
17:00:00 light rain 27.640 18.470 27.640 39 2.81 m/h 38 %
20:00:00 scattered clouds 19.150 12.610 19.150 54 4.5 m/h 0 %
23:00:00 scattered clouds 11.610 11.610 11.610 63 4.32 m/h 0 %
09-May-2021 (Sun)
02:00:00 light rain 11.270 11.270 11.270 59 3.78 m/h 31 %
05:00:00 light rain 10.830 10.830 10.830 59 2.98 m/h 28 %
08:00:00 overcast clouds 17.200 17.200 17.200 44 1.06 m/h 0 %
11:00:00 overcast clouds 21.600 21.600 21.600 32 1.55 m/h 0 %
14:00:00 overcast clouds 22.660 22.660 22.660 29 2.41 m/h 0 %
17:00:00 broken clouds 22.350 22.350 22.350 28 2.06 m/h 0 %
20:00:00 overcast clouds 15.910 15.910 15.910 46 2.89 m/h 0 %
23:00:00 overcast clouds 13.830 13.830 13.830 52 2.77 m/h 0 %
10-May-2021 (Mon)
02:00:00 broken clouds 12.010 12.010 12.010 57 2.39 m/h 0 %
05:00:00 light rain 11.180 11.180 11.180 60 2.31 m/h 21 %
08:00:00 light rain 17.480 17.480 17.480 44 1.9 m/h 29 %
11:00:00 overcast clouds 22.230 22.230 22.230 31 1.86 m/h 0 %
14:00:00 overcast clouds 23.920 23.920 23.920 27 2.91 m/h 0 %
17:00:00 overcast clouds 22.870 22.870 22.870 29 1.66 m/h 0 %
20:00:00 scattered clouds 16.720 16.720 16.720 45 1.65 m/h 0 %
23:00:00 scattered clouds 14.610 14.610 14.610 54 3.6 m/h 0 %
11-May-2021 (Tue)
02:00:00 overcast clouds 13.880 13.880 13.880 55 3.35 m/h 0 %
05:00:00 overcast clouds 12.810 12.810 12.810 56 2.68 m/h 0 %
08:00:00 overcast clouds 18.830 18.830 18.830 41 2.58 m/h 0 %
11:00:00 broken clouds 24.160 24.160 24.160 28 2.12 m/h 0 %
14:00:00 scattered clouds 24.090 24.090 24.090 29 3.77 m/h 0 %
17:00:00 light rain 14.890 14.890 14.890 56 5.7 m/h 94 %
20:00:00 light rain 12.740 12.740 12.740 58 5.62 m/h 31 %
23:00:00 light rain 11.530 11.530 11.530 63 2.81 m/h 58 %
12-May-2021 (Wed)
02:00:00 light rain 11.080 11.080 11.080 69 3.34 m/h 158 %
05:00:00 light rain 10.930 10.930 10.930 66 3.73 m/h 13 %
08:00:00 light rain 15.880 15.880 15.880 50 1.67 m/h 16 %
11:00:00 light rain 16.030 16.030 16.030 52 2.42 m/h 12 %
14:00:00 light rain 18.500 18.500 18.500 43 2.62 m/h 35 %
17:00:00 light rain 18.240 18.240 18.240 43 2.08 m/h 17 %
20:00:00 light rain 12.280 12.280 12.280 69 1.29 m/h 118 %
23:00:00 light rain 11.150 11.150 11.150 76 3.19 m/h 294 %
13-May-2021 (Thu)
02:00:00 light rain 9.170 9.170 9.170 84 4.11 m/h 259 %
05:00:00 light rain 9.190 9.190 9.190 83 2.49 m/h 268 %
08:00:00 light rain 10.020 10.020 10.020 81 2.04 m/h 253 %
11:00:00 moderate rain 11.880 11.880 11.880 74 1.63 m/h 407 %
14:00:00 moderate rain 13.610 13.610 13.610 66 0.78 m/h 464 %

Famous Cities (60)